createdAt,value
2022-09-15T00:01:07.284Z,98517.19
2022-09-15T00:03:35.016Z,98451.00
2022-09-15T00:06:02.203Z,98482.72
2022-09-15T00:08:30.354Z,98518.91
2022-09-15T00:11:10.892Z,98520.66
2022-09-15T00:13:39.851Z,98527.53
2022-09-15T00:16:08.521Z,98524.03
2022-09-15T00:18:37.192Z,98518.91
2022-09-15T00:21:14.084Z,98520.50
2022-09-15T00:23:41.300Z,98499.84
2022-09-15T00:26:15.342Z,98504.16
2022-09-15T00:28:43.391Z,98432.78
2022-09-15T00:31:14.252Z,98477.50
2022-09-15T00:33:41.982Z,98504.19
2022-09-15T00:36:12.014Z,98461.22
2022-09-15T00:38:39.685Z,98498.03
2022-09-15T00:41:08.901Z,98500.53
2022-09-15T00:44:01.602Z,98492.66
2022-09-15T00:46:39.754Z,98497.97
2022-09-15T00:49:16.563Z,98513.50
2022-09-15T00:52:08.655Z,98497.97
2022-09-15T00:54:47.719Z,98489.19
2022-09-15T00:57:28.655Z,98505.59
2022-09-15T00:59:57.306Z,98506.38
2022-09-15T01:02:35.499Z,98500.38
2022-09-15T01:05:07.601Z,98474.56
2022-09-15T01:08:03.557Z,98475.44
2022-09-15T01:10:34.688Z,98505.53
2022-09-15T01:13:04.717Z,98503.78
2022-09-15T01:15:57.883Z,98501.00
2022-09-15T01:18:37.193Z,98504.56
2022-09-15T01:21:21.347Z,98501.91
2022-09-15T01:23:58.939Z,98504.47
2022-09-15T01:27:30.574Z,98494.78
2022-09-15T01:30:10.421Z,98481.97
2022-09-15T01:33:05.430Z,98495.78
2022-09-15T01:36:06.268Z,98489.75
2022-09-15T01:39:01.162Z,98495.03
2022-09-15T01:41:37.894Z,98497.72
2022-09-15T01:44:22.494Z,98470.16
2022-09-15T01:46:54.871Z,98456.47
2022-09-15T01:49:28.311Z,98442.91
2022-09-15T01:51:55.556Z,98479.78
2022-09-15T01:54:28.381Z,98484.06
2022-09-15T01:56:56.391Z,98488.31
2022-09-15T01:59:23.540Z,98411.84
2022-09-15T02:02:02.857Z,98439.28
2022-09-15T02:05:06.547Z,98483.94
2022-09-15T02:07:39.395Z,98492.81
2022-09-15T02:10:15.554Z,98422.44
2022-09-15T02:12:52.000Z,98488.28
2022-09-15T02:15:43.864Z,98482.22
2022-09-15T02:18:14.885Z,98431.50
2022-09-15T02:20:52.566Z,98485.50
2022-09-15T02:23:30.850Z,98489.75
2022-09-15T02:26:06.011Z,98461.44
2022-09-15T02:28:37.111Z,98487.31
2022-09-15T02:31:07.957Z,98490.72
2022-09-15T02:33:40.838Z,98425.44
2022-09-15T02:36:11.185Z,98471.72
2022-09-15T02:38:46.572Z,98459.63
2022-09-15T02:41:14.737Z,98472.34
2022-09-15T02:43:49.464Z,98476.63
2022-09-15T02:46:20.245Z,98490.41
2022-09-15T02:48:47.828Z,98430.22
2022-09-15T02:51:16.680Z,98464.53
2022-09-15T02:53:44.786Z,98466.28
2022-09-15T02:56:12.079Z,98493.06
2022-09-15T02:58:39.228Z,98424.28
2022-09-15T03:01:08.180Z,98478.34
2022-09-15T03:03:37.904Z,98469.81
2022-09-15T03:06:18.068Z,98487.09
2022-09-15T03:08:47.868Z,98490.25
2022-09-15T03:11:16.220Z,98482.69
2022-09-15T03:13:43.345Z,98469.97
2022-09-15T03:16:12.577Z,98447.63
2022-09-15T03:18:40.012Z,98488.81
2022-09-15T03:21:09.919Z,98389.94
2022-09-15T03:23:37.167Z,98473.28
2022-09-15T03:26:05.922Z,98483.78
2022-09-15T03:28:33.012Z,98474.22
2022-09-15T03:31:00.139Z,98489.69
2022-09-15T03:33:27.375Z,98461.44
2022-09-15T03:35:54.436Z,98493.22
2022-09-15T03:38:22.148Z,98480.31
2022-09-15T03:41:03.033Z,98487.16
2022-09-15T03:43:31.352Z,98489.91
2022-09-15T03:45:59.584Z,98490.81
2022-09-15T03:48:27.861Z,98482.13
2022-09-15T03:50:54.913Z,98461.56
2022-09-15T03:53:22.526Z,98481.38
2022-09-15T03:55:49.961Z,98481.38
2022-09-15T03:58:18.645Z,98468.50
2022-09-15T04:00:46.808Z,98480.53
2022-09-15T04:03:14.450Z,98463.22
2022-09-15T04:05:44.827Z,98473.47
2022-09-15T04:08:13.386Z,98476.09
2022-09-15T04:10:41.341Z,98475.25
2022-09-15T04:13:08.844Z,98466.75
2022-09-15T04:15:36.098Z,98484.03
2022-09-15T04:18:05.012Z,98479.66
2022-09-15T04:20:32.306Z,98477.22
2022-09-15T04:22:59.485Z,98460.88
2022-09-15T04:25:28.033Z,98495.25
2022-09-15T04:27:56.326Z,98477.16
2022-09-15T04:30:23.701Z,98455.56
2022-09-15T04:32:51.935Z,98487.31
2022-09-15T04:35:19.023Z,98491.63
2022-09-15T04:37:46.111Z,98482.94
2022-09-15T04:40:13.248Z,98469.16
2022-09-15T04:42:40.329Z,98492.38
2022-09-15T04:45:08.001Z,98472.69
2022-09-15T04:47:35.054Z,98495.97
2022-09-15T04:50:02.246Z,98475.44
2022-09-15T04:52:32.768Z,98490.72
2022-09-15T04:55:00.604Z,98484.78
2022-09-15T04:57:27.878Z,98398.72
2022-09-15T04:59:54.888Z,98474.44
2022-09-15T05:02:22.050Z,98422.03
2022-09-15T05:04:50.275Z,98483.88
2022-09-15T05:07:18.686Z,98464.91
2022-09-15T05:09:45.964Z,98483.72
2022-09-15T05:12:13.113Z,98405.44
2022-09-15T05:14:40.126Z,98400.22
2022-09-15T05:17:07.085Z,98486.94
2022-09-15T05:19:34.326Z,98468.97
2022-09-15T05:22:01.365Z,98488.78
2022-09-15T05:24:28.490Z,98491.44
2022-09-15T05:26:55.583Z,98465.56
2022-09-15T05:29:22.771Z,98486.09
2022-09-15T05:31:49.831Z,98449.38
2022-09-15T05:34:16.978Z,98469.00
2022-09-15T05:36:44.144Z,98486.25
2022-09-15T05:39:11.213Z,98491.47
2022-09-15T05:41:38.257Z,98394.25
2022-09-15T05:44:05.373Z,98472.38
2022-09-15T05:46:32.677Z,98493.88
2022-09-15T05:48:59.760Z,98492.13
2022-09-15T05:51:26.824Z,98411.38
2022-09-15T05:53:53.759Z,98411.50
2022-09-15T05:56:20.838Z,98498.31
2022-09-15T05:58:49.103Z,98456.94
2022-09-15T06:01:27.888Z,98487.97
2022-09-15T06:03:56.045Z,98487.91
2022-09-15T06:06:24.604Z,98491.19
2022-09-15T06:08:58.154Z,98462.03
2022-09-15T06:11:33.876Z,98490.28
2022-09-15T06:14:03.297Z,98502.31
2022-09-15T06:16:33.461Z,98497.16
2022-09-15T06:19:03.819Z,98491.03
2022-09-15T06:21:32.543Z,98468.50
2022-09-15T06:24:03.455Z,98361.19
2022-09-15T06:26:30.843Z,98427.22
2022-09-15T06:29:00.613Z,98471.00
2022-09-15T06:31:29.666Z,98419.47
2022-09-15T06:33:57.969Z,98486.50
2022-09-15T06:36:28.168Z,98491.63
2022-09-15T06:38:56.327Z,98488.84
2022-09-15T06:41:23.712Z,98506.06
2022-09-15T06:43:51.025Z,98502.59
2022-09-15T06:46:21.089Z,98484.53
2022-09-15T06:48:48.977Z,98469.13
2022-09-15T06:51:17.752Z,98483.69
2022-09-15T06:53:45.196Z,98517.28
2022-09-15T06:56:14.645Z,98507.84
2022-09-15T06:58:43.452Z,98511.38
2022-09-15T07:01:15.081Z,98521.50
2022-09-15T07:03:44.311Z,98500.84
2022-09-15T07:06:15.011Z,98518.72
2022-09-15T07:08:42.480Z,98508.44
2022-09-15T07:11:10.451Z,98419.97
2022-09-15T07:13:37.945Z,98444.13
2022-09-15T07:16:08.028Z,98527.25
2022-09-15T07:18:39.712Z,98522.78
2022-09-15T07:21:12.664Z,98521.75
2022-09-15T07:23:40.216Z,98501.94
2022-09-15T07:26:17.753Z,98520.56
2022-09-15T07:28:47.304Z,98520.56
2022-09-15T07:31:17.833Z,98512.63
2022-09-15T07:33:48.157Z,98497.84
2022-09-15T07:36:15.685Z,98511.44
2022-09-15T07:38:48.209Z,98488.16
2022-09-15T07:41:21.034Z,98377.34
2022-09-15T07:43:49.480Z,98534.44
2022-09-15T07:46:18.195Z,98531.72
2022-09-15T07:48:49.885Z,98531.63
2022-09-15T07:51:17.688Z,98530.78
2022-09-15T07:53:46.629Z,98525.56
2022-09-15T07:56:13.925Z,98521.06
2022-09-15T07:58:41.018Z,98529.66
2022-09-15T08:01:14.889Z,98530.41
2022-09-15T08:03:43.931Z,98532.13
2022-09-15T08:06:11.688Z,98532.03
2022-09-15T08:08:40.003Z,98538.00
2022-09-15T08:11:17.684Z,98539.66
2022-09-15T08:13:47.673Z,98520.59
2022-09-15T08:16:17.164Z,98536.94
2022-09-15T08:18:44.801Z,98541.16
2022-09-15T08:21:14.475Z,98503.13
2022-09-15T08:23:41.708Z,98489.47
2022-09-15T08:26:14.103Z,98523.69
2022-09-15T08:28:42.496Z,98528.81
2022-09-15T08:31:12.806Z,98532.94
2022-09-15T08:33:44.784Z,98533.78
2022-09-15T08:36:13.586Z,98517.59
2022-09-15T08:38:41.633Z,98513.34
2022-09-15T08:41:17.483Z,98531.34
2022-09-15T08:44:16.856Z,98530.44
2022-09-15T08:46:53.934Z,98510.03
2022-09-15T08:49:52.928Z,98527.97
2022-09-15T08:52:28.779Z,98525.84
2022-09-15T08:54:58.207Z,98517.50
2022-09-15T08:57:26.295Z,98528.88
2022-09-15T08:59:55.006Z,98539.28
2022-09-15T09:02:58.423Z,98538.47
2022-09-15T09:05:41.762Z,98505.09
2022-09-15T09:08:39.717Z,98524.06
2022-09-15T09:11:24.621Z,98463.41
2022-09-15T09:14:35.488Z,98492.34
2022-09-15T09:17:21.331Z,98549.13
2022-09-15T09:19:55.606Z,98503.91
2022-09-15T09:22:32.001Z,98552.84
2022-09-15T09:25:11.699Z,98553.75
2022-09-15T09:27:43.629Z,98556.41
2022-09-15T09:30:17.465Z,98548.56
2022-09-15T09:32:51.283Z,98556.56
2022-09-15T09:35:33.746Z,98467.97
2022-09-15T09:38:02.640Z,98530.88
2022-09-15T09:40:31.793Z,98560.13
2022-09-15T09:43:01.097Z,98567.09
2022-09-15T09:45:28.088Z,98551.53
2022-09-15T09:48:01.817Z,98528.31
2022-09-15T09:50:39.467Z,98572.34
2022-09-15T09:53:30.032Z,98574.81
2022-09-15T09:56:12.156Z,98569.63
2022-09-15T09:58:39.315Z,98453.06
2022-09-15T10:01:20.791Z,98508.88
2022-09-15T10:03:47.935Z,98477.09
2022-09-15T10:06:22.319Z,98567.34
2022-09-15T10:08:56.085Z,98489.94
2022-09-15T10:11:40.101Z,98509.53
2022-09-15T10:14:07.321Z,98506.25
2022-09-15T10:16:34.451Z,98565.34
2022-09-15T10:19:02.163Z,98559.25
2022-09-15T10:21:29.211Z,98570.31
2022-09-15T10:23:56.191Z,98577.09
2022-09-15T10:26:34.770Z,98478.19
2022-09-15T10:29:19.525Z,98551.00
2022-09-15T10:31:46.787Z,98548.44
2022-09-15T10:34:32.545Z,98608.69
2022-09-15T10:37:31.574Z,98580.88
2022-09-15T10:40:01.410Z,98587.00
2022-09-15T10:42:53.010Z,98506.81
2022-09-15T10:45:23.081Z,98593.72
2022-09-15T10:48:20.973Z,98541.34
2022-09-15T10:50:56.241Z,98566.28
2022-09-15T10:53:39.038Z,98593.84
2022-09-15T10:56:33.233Z,98578.34
2022-09-15T10:59:13.082Z,98586.19
2022-09-15T11:02:21.681Z,98590.38
2022-09-15T11:05:11.143Z,98516.59
2022-09-15T11:07:45.387Z,98577.84
2022-09-15T11:10:32.399Z,98613.28
2022-09-15T11:13:29.465Z,98591.56
2022-09-15T11:16:11.956Z,98607.19
2022-09-15T11:19:21.601Z,98614.16
2022-09-15T11:21:55.035Z,98604.81
2022-09-15T11:24:41.032Z,98619.34
2022-09-15T11:27:33.430Z,98601.44
2022-09-15T11:30:20.464Z,98623.06
2022-09-15T11:33:01.571Z,98560.53
2022-09-15T11:35:53.987Z,98626.72
2022-09-15T11:38:20.999Z,98625.25
2022-09-15T11:40:59.367Z,98543.91
2022-09-15T11:43:46.301Z,98628.09
2022-09-15T11:46:25.929Z,98637.59
2022-09-15T11:49:06.153Z,98557.59
2022-09-15T11:51:43.136Z,98644.78
2022-09-15T11:54:28.207Z,98621.41
2022-09-15T11:57:00.294Z,98614.66
2022-09-15T12:00:13.876Z,98645.53
2022-09-15T12:03:02.139Z,98655.41
2022-09-15T12:05:40.050Z,98645.31
2022-09-15T12:08:16.946Z,98647.03
2022-09-15T12:10:46.659Z,98651.13
2022-09-15T12:13:18.833Z,98647.03
2022-09-15T12:15:47.953Z,98569.72
2022-09-15T12:18:46.668Z,98629.81
2022-09-15T12:21:30.418Z,98625.75
2022-09-15T12:24:07.934Z,98639.44
2022-09-15T12:26:35.574Z,98618.84
2022-09-15T12:29:23.809Z,98558.53
2022-09-15T12:32:29.875Z,98643.53
2022-09-15T12:35:13.500Z,98641.94
2022-09-15T12:37:46.490Z,98637.50
2022-09-15T12:40:37.875Z,98641.69
2022-09-15T12:43:25.790Z,98630.59
2022-09-15T12:46:00.005Z,98647.16
2022-09-15T12:48:36.795Z,98613.53
2022-09-15T12:51:07.555Z,98597.34
2022-09-15T12:53:41.654Z,98641.13
2022-09-15T12:56:41.980Z,98583.50
2022-09-15T12:59:15.154Z,98640.34
2022-09-15T13:01:49.171Z,98424.53
2022-09-15T13:04:45.057Z,98647.91
2022-09-15T13:07:21.199Z,98653.13
2022-09-15T13:09:59.117Z,98645.28
2022-09-15T13:12:32.832Z,98635.72
2022-09-15T13:15:03.928Z,98637.31
2022-09-15T13:17:33.682Z,98602.97
2022-09-15T13:20:10.140Z,98590.91
2022-09-15T13:22:44.575Z,98625.06
2022-09-15T13:25:13.895Z,98368.81
2022-09-15T13:27:46.231Z,98533.84
2022-09-15T13:30:36.223Z,98545.03
2022-09-15T13:39:37.105Z,98662.00
2022-09-15T13:42:18.993Z,98665.47
2022-09-15T13:45:07.868Z,98669.03
2022-09-15T13:47:50.439Z,98597.44
2022-09-15T13:50:24.076Z,98651.00
2022-09-15T13:53:12.921Z,98669.50
2022-09-15T13:55:43.521Z,98597.47
2022-09-15T14:01:05.827Z,98677.47
2022-09-15T14:03:46.227Z,98668.63
2022-09-15T14:06:33.845Z,98679.91
2022-09-15T14:09:27.632Z,98678.06
2022-09-15T14:12:00.436Z,98680.84
2022-09-15T14:14:27.429Z,98691.28
2022-09-15T14:16:56.702Z,98667.13
2022-09-15T14:19:35.513Z,98595.97
2022-09-15T14:22:20.540Z,98696.59
2022-09-15T14:24:48.091Z,98388.94
2022-09-15T14:27:26.694Z,98684.81
2022-09-15T14:29:55.464Z,98677.84
2022-09-15T14:32:22.700Z,98686.56
2022-09-15T14:34:51.286Z,98638.34
2022-09-15T14:37:20.963Z,98684.94
2022-09-15T14:39:56.540Z,98659.22
2022-09-15T14:42:33.979Z,98689.41
2022-09-15T14:48:15.654Z,98693.88
2022-09-15T14:50:45.117Z,98699.28
2022-09-15T14:53:20.534Z,98541.81
2022-09-15T14:56:00.611Z,98694.94
2022-09-15T14:58:38.722Z,98688.94
2022-09-15T15:01:33.098Z,98676.03
2022-09-15T15:04:03.037Z,98711.41
2022-09-15T15:06:58.916Z,98698.16
2022-09-15T15:09:48.994Z,98696.50
2022-09-15T15:12:25.393Z,98703.47
2022-09-15T15:14:55.510Z,98687.97
2022-09-15T15:17:35.913Z,98713.06
2022-09-15T15:20:06.097Z,98706.97
2022-09-15T15:22:33.689Z,98699.22
2022-09-15T15:25:01.413Z,98656.94
2022-09-15T15:27:34.515Z,98606.97
2022-09-15T15:30:26.724Z,98699.84
2022-09-15T15:32:55.216Z,98698.16
2022-09-15T15:35:22.818Z,98699.06
2022-09-15T15:38:04.939Z,98663.63
2022-09-15T15:40:34.401Z,98609.44
2022-09-15T15:43:03.631Z,98698.97
2022-09-15T15:45:34.015Z,98693.88
2022-09-15T15:48:03.321Z,98692.94
2022-09-15T15:50:32.930Z,98697.25
2022-09-15T15:53:01.080Z,98674.81
2022-09-15T15:55:38.429Z,98711.88
2022-09-15T15:58:06.163Z,98605.94
2022-09-15T16:00:44.900Z,98697.06
2022-09-15T16:03:14.967Z,98708.53
2022-09-15T16:05:45.427Z,98692.97
2022-09-15T16:08:29.038Z,98682.59
2022-09-15T16:10:57.401Z,98548.28
2022-09-15T16:13:25.308Z,98697.06
2022-09-15T16:16:00.422Z,98653.22
2022-09-15T16:18:29.034Z,98685.91
2022-09-15T16:20:56.066Z,98703.31
2022-09-15T16:23:23.678Z,98698.00
2022-09-15T16:26:05.645Z,98632.69
2022-09-15T16:28:32.925Z,98699.97
2022-09-15T16:31:00.206Z,98711.28
2022-09-15T16:33:27.450Z,98707.00
2022-09-15T16:36:09.106Z,98710.53
2022-09-15T16:38:36.901Z,98702.03
2022-09-15T16:41:10.623Z,98690.94
2022-09-15T16:43:37.715Z,98619.63
2022-09-15T16:46:06.438Z,98706.72
2022-09-15T16:48:34.420Z,98675.75
2022-09-15T16:51:23.032Z,98725.94
2022-09-15T16:53:51.207Z,98677.63
2022-09-15T16:56:19.350Z,98689.78
2022-09-15T16:58:46.358Z,98708.03
2022-09-15T17:01:21.497Z,98702.84
2022-09-15T17:03:48.791Z,98662.53
2022-09-15T17:06:17.993Z,98706.53
2022-09-15T17:08:45.726Z,98665.19
2022-09-15T17:11:16.826Z,98704.88
2022-09-15T17:13:45.374Z,98708.34
2022-09-15T17:16:15.013Z,98698.00
2022-09-15T17:18:42.229Z,98680.88
2022-09-15T17:21:12.999Z,98714.50
2022-09-15T17:23:43.274Z,98696.53
2022-09-15T17:26:13.057Z,98714.59
2022-09-15T17:28:41.215Z,98655.22
2022-09-15T17:31:24.744Z,98665.66
2022-09-15T17:33:53.053Z,98701.97
2022-09-15T17:36:20.722Z,98679.66
2022-09-15T17:38:50.863Z,98715.06
2022-09-15T17:41:20.556Z,98685.03
2022-09-15T17:43:48.501Z,98728.13
2022-09-15T17:46:18.837Z,98726.53
2022-09-15T17:48:46.643Z,98625.03
2022-09-15T17:51:17.490Z,98730.31
2022-09-15T17:53:48.132Z,98724.28
2022-09-15T17:56:15.570Z,98633.00
2022-09-15T17:58:45.564Z,98726.13
2022-09-15T18:01:14.088Z,98714.88
2022-09-15T18:03:43.851Z,98686.56
2022-09-15T18:06:11.768Z,98621.88
2022-09-15T18:08:39.133Z,98698.59
2022-09-15T18:11:07.336Z,98695.19
2022-09-15T18:13:34.852Z,98714.19
2022-09-15T18:16:13.076Z,98689.97
2022-09-15T18:18:41.100Z,98716.75
2022-09-15T18:21:12.217Z,98699.53
2022-09-15T18:23:42.514Z,98683.19
2022-09-15T18:26:09.834Z,98699.56
2022-09-15T18:28:37.232Z,98691.81
2022-09-15T18:31:04.657Z,98605.69
2022-09-15T18:33:32.018Z,98685.81
2022-09-15T18:35:59.253Z,98654.00
2022-09-15T18:38:27.054Z,98697.13
2022-09-15T18:40:56.654Z,98704.84
2022-09-15T18:43:25.505Z,98623.88
2022-09-15T18:45:57.960Z,98681.66
2022-09-15T18:48:25.430Z,98704.06
2022-09-15T18:50:54.631Z,98624.00
2022-09-15T18:53:21.714Z,98704.97
2022-09-15T18:55:49.293Z,98706.75
2022-09-15T18:58:17.840Z,98688.69
2022-09-15T19:00:45.887Z,98678.28
2022-09-15T19:03:14.450Z,98626.69
2022-09-15T19:05:41.871Z,98693.09
2022-09-15T19:08:09.653Z,98705.19
2022-09-15T19:10:39.690Z,98705.22
2022-09-15T19:13:06.907Z,98650.91
2022-09-15T19:15:34.724Z,98694.91
2022-09-15T19:18:02.180Z,98711.38
2022-09-15T19:20:29.718Z,98709.63
2022-09-15T19:22:57.982Z,98713.22
2022-09-15T19:25:25.195Z,98657.25
2022-09-15T19:27:52.649Z,98685.88
2022-09-15T19:30:19.862Z,98642.88
2022-09-15T19:32:47.022Z,98698.06
2022-09-15T19:35:14.458Z,98696.38
2022-09-15T19:37:42.682Z,98684.28
2022-09-15T19:40:13.354Z,98659.25
2022-09-15T19:42:42.431Z,98695.44
2022-09-15T19:45:11.482Z,98609.22
2022-09-15T19:47:39.868Z,98696.31
2022-09-15T19:50:09.284Z,98691.97
2022-09-15T19:52:36.816Z,98681.59
2022-09-15T19:55:06.878Z,98653.16
2022-09-15T19:57:34.168Z,98691.94
2022-09-15T20:00:01.510Z,98680.75
2022-09-15T20:02:32.229Z,98578.94
2022-09-15T20:04:59.404Z,98683.25
2022-09-15T20:07:26.392Z,98618.66
2022-09-15T20:09:53.535Z,98684.22
2022-09-15T20:14:52.784Z,98686.06
2022-09-15T20:17:19.990Z,98649.81
2022-09-15T20:19:47.219Z,98606.63
2022-09-15T20:22:14.777Z,98679.16
2022-09-15T20:24:41.909Z,98673.91
2022-09-15T20:27:09.103Z,98686.84
2022-09-15T20:29:36.270Z,98671.34
2022-09-15T20:32:03.397Z,98660.16
2022-09-15T20:34:30.561Z,98603.22
2022-09-15T20:36:58.047Z,98684.31
2022-09-15T20:39:25.995Z,98685.19
2022-09-15T20:41:53.140Z,98667.91
2022-09-15T20:44:20.263Z,98670.59
2022-09-15T20:46:47.644Z,98680.88
2022-09-15T20:49:14.814Z,98689.56
2022-09-15T20:51:42.390Z,98692.19
2022-09-15T20:54:11.021Z,98695.69
2022-09-15T20:56:38.372Z,98695.72
2022-09-15T20:59:06.361Z,98683.66
2022-09-15T21:01:36.907Z,98687.09
2022-09-15T21:04:05.982Z,98681.09
2022-09-15T21:06:35.728Z,98698.44
2022-09-15T21:09:03.063Z,98683.69
2022-09-15T21:11:30.695Z,98675.06
2022-09-15T21:13:58.856Z,98683.66
2022-09-15T21:16:28.674Z,98606.94
2022-09-15T21:18:57.658Z,98684.50
2022-09-15T21:21:27.501Z,98645.66
2022-09-15T21:23:56.865Z,98676.78
2022-09-15T21:26:26.330Z,98572.41
2022-09-15T21:28:54.789Z,98673.28
2022-09-15T21:31:26.377Z,98682.00
2022-09-15T21:33:54.632Z,98647.44
2022-09-15T21:36:27.111Z,98678.53
2022-09-15T21:38:56.508Z,98680.25
2022-09-15T21:41:31.921Z,98675.94
2022-09-15T21:44:00.812Z,98669.00
2022-09-15T21:46:30.512Z,98651.78
2022-09-15T21:48:59.563Z,98675.97
2022-09-15T21:51:28.871Z,98640.66
2022-09-15T21:53:57.927Z,98675.09
2022-09-15T21:56:25.893Z,98651.84
2022-09-15T21:58:53.163Z,98599.28
2022-09-15T22:01:23.665Z,98662.19
2022-09-15T22:04:01.814Z,98671.69
2022-09-15T22:06:32.134Z,98669.09
2022-09-15T22:09:23.246Z,98669.09
2022-09-15T22:11:50.360Z,98638.88
2022-09-15T22:14:17.507Z,98570.75
2022-09-15T22:16:44.729Z,98650.91
2022-09-15T22:19:12.960Z,98644.88
2022-09-15T22:21:42.166Z,98604.34
2022-09-15T22:24:11.552Z,98652.66
2022-09-15T22:26:39.827Z,98635.41
2022-09-15T22:29:07.137Z,98653.47
2022-09-15T22:31:35.380Z,98658.69
2022-09-15T22:34:03.221Z,98661.28
2022-09-15T22:36:31.482Z,98656.13
2022-09-15T22:39:04.520Z,98645.75
2022-09-15T22:41:37.514Z,98520.75
2022-09-15T22:44:05.993Z,98640.59
2022-09-15T22:46:33.255Z,98599.22
2022-09-15T22:49:00.499Z,98647.50
2022-09-15T22:51:27.938Z,98602.72
2022-09-15T22:53:57.510Z,98642.38
2022-09-15T22:56:26.537Z,98644.16
2022-09-15T22:58:55.057Z,98630.34
2022-09-15T23:01:27.815Z,98646.75
2022-09-15T23:03:57.639Z,98649.38
2022-09-15T23:06:27.045Z,98600.19
2022-09-15T23:08:59.784Z,98667.53
2022-09-15T23:11:28.733Z,98644.19
2022-09-15T23:13:56.500Z,98646.75
2022-09-15T23:16:25.190Z,98653.69
2022-09-15T23:18:53.703Z,98646.78
2022-09-15T23:21:21.157Z,98651.97
2022-09-15T23:23:49.383Z,98630.41
2022-09-15T23:26:18.933Z,98651.13
2022-09-15T23:28:46.787Z,98647.69
2022-09-15T23:31:14.615Z,98644.19
2022-09-15T23:33:42.762Z,98648.53
2022-09-15T23:36:13.011Z,98638.19
2022-09-15T23:38:41.909Z,98643.38
2022-09-15T23:41:10.332Z,98546.78
2022-09-15T23:43:37.567Z,98545.91
2022-09-15T23:46:05.232Z,98539.03
2022-09-15T23:48:32.709Z,98537.31
2022-09-15T23:51:00.274Z,98628.66
2022-09-15T23:53:27.971Z,98487.28
2022-09-15T23:55:55.111Z,98628.66
2022-09-15T23:58:22.241Z,98383.00
